createdAt,value
2019-03-27T00:00:16.176Z,103201.98
2019-03-27T00:02:44.016Z,103201.48
2019-03-27T00:05:12.256Z,103195.05
2019-03-27T00:07:40.035Z,103195.69
2019-03-27T00:10:09.238Z,103198.59
2019-03-27T00:12:37.130Z,103201.72
2019-03-27T00:15:12.751Z,103193.11
2019-03-27T00:17:36.292Z,103198.76
2019-03-27T00:20:04.920Z,103196.13
2019-03-27T00:22:32.747Z,103201.48
2019-03-27T00:25:00.530Z,103201.25
2019-03-27T00:27:28.398Z,103199.39
2019-03-27T00:29:56.204Z,103191.85
2019-03-27T00:32:24.007Z,103186.78
2019-03-27T00:34:51.835Z,103189.09
2019-03-27T00:37:19.639Z,103186.97
2019-03-27T00:39:47.451Z,103183.61
2019-03-27T00:42:15.261Z,103184.97
2019-03-27T00:44:43.067Z,103186.51
2019-03-27T00:47:10.933Z,103183.92
2019-03-27T00:49:38.721Z,103188.36
2019-03-27T00:52:06.494Z,103187.45
2019-03-27T00:54:34.378Z,103183.34
2019-03-27T00:57:02.202Z,103189.36
2019-03-27T00:59:30.058Z,103187.69
2019-03-27T01:01:57.849Z,103188.86
2019-03-27T01:04:25.657Z,103193.57
2019-03-27T01:06:53.477Z,103197.47
2019-03-27T01:09:21.429Z,103196.92
2019-03-27T01:11:49.259Z,103197.56
2019-03-27T01:14:17.061Z,103200.63
2019-03-27T01:16:44.952Z,103193.48
2019-03-27T01:19:12.793Z,103191.55
2019-03-27T01:21:40.599Z,103195.34
2019-03-27T01:24:08.448Z,103194.76
2019-03-27T01:26:36.263Z,103193.30
2019-03-27T01:29:04.060Z,103197.07
2019-03-27T01:31:31.919Z,103188.01
2019-03-27T01:33:59.795Z,103188.01
2019-03-27T01:36:27.613Z,103186.42
2019-03-27T01:38:55.496Z,103189.36
2019-03-27T01:41:23.299Z,103192.66
2019-03-27T01:43:51.082Z,103192.66
2019-03-27T01:46:18.951Z,103189.87
2019-03-27T01:48:46.813Z,103185.70
2019-03-27T01:51:14.639Z,103187.69
2019-03-27T01:53:42.504Z,103179.34
2019-03-27T01:56:10.319Z,103179.34
2019-03-27T01:58:38.198Z,103186.51
2019-03-27T02:01:06.109Z,103187.18
2019-03-27T02:03:33.993Z,103180.72
2019-03-27T02:06:01.899Z,103191.76
2019-03-27T02:08:29.723Z,103189.53
2019-03-27T02:10:57.551Z,103189.44
2019-03-27T02:13:25.326Z,103175.01
2019-03-27T02:16:05.863Z,103173.77
2019-03-27T02:18:22.880Z,103170.41
2019-03-27T02:20:50.823Z,103165.27
2019-03-27T02:23:18.637Z,103158.44
2019-03-27T02:25:46.416Z,103157.77
2019-03-27T02:28:14.242Z,103159.80
2019-03-27T02:30:42.021Z,103156.55
2019-03-27T02:33:09.819Z,103159.17
2019-03-27T02:35:37.662Z,103171.15
2019-03-27T02:38:05.554Z,103159.17
2019-03-27T02:40:33.440Z,103160.21
2019-03-27T02:43:01.296Z,103160.34
2019-03-27T02:45:29.078Z,103163.56
2019-03-27T02:47:56.955Z,103156.41
2019-03-27T02:50:24.831Z,103152.74
2019-03-27T02:52:52.669Z,103165.02
2019-03-27T02:55:20.547Z,103169.72
2019-03-27T02:57:48.390Z,103167.37
2019-03-27T03:00:17.146Z,103166.42
2019-03-27T03:02:44.935Z,103171.20
2019-03-27T03:05:12.946Z,103167.64
2019-03-27T03:07:40.782Z,103162.84
2019-03-27T03:10:09.481Z,103167.45
2019-03-27T03:12:37.308Z,103168.63
2019-03-27T03:15:06.494Z,103165.03
2019-03-27T03:17:34.372Z,103161.47
2019-03-27T03:20:02.194Z,103161.47
2019-03-27T03:22:29.974Z,103166.81
2019-03-27T03:24:57.753Z,103169.91
2019-03-27T03:27:25.646Z,103174.48
2019-03-27T03:29:53.421Z,103174.48
2019-03-27T03:32:21.421Z,103176.33
2019-03-27T03:34:49.293Z,103178.11
2019-03-27T03:37:17.083Z,103178.89
2019-03-27T03:39:44.925Z,103179.89
2019-03-27T03:42:12.703Z,103180.28
2019-03-27T03:44:40.517Z,103180.83
2019-03-27T03:47:08.345Z,103189.30
2019-03-27T03:49:36.221Z,103188.91
2019-03-27T03:52:04.446Z,103194.00
2019-03-27T03:54:32.388Z,103191.39
2019-03-27T03:57:02.525Z,103191.39
2019-03-27T03:59:30.806Z,103203.19
2019-03-27T04:02:02.555Z,103205.33
2019-03-27T04:04:31.945Z,103207.31
2019-03-27T04:06:59.790Z,103194.75
2019-03-27T04:09:27.660Z,103194.75
2019-03-27T04:11:55.540Z,103205.14
2019-03-27T04:14:23.367Z,103210.02
2019-03-27T04:16:51.198Z,103204.91
2019-03-27T04:19:19.011Z,103206.21
2019-03-27T04:21:46.829Z,103202.05
2019-03-27T04:24:14.667Z,103199.72
2019-03-27T04:26:42.487Z,103195.97
2019-03-27T04:29:10.331Z,103195.72
2019-03-27T04:31:38.209Z,103195.84
2019-03-27T04:34:06.022Z,103208.02
2019-03-27T04:36:33.823Z,103204.98
2019-03-27T04:39:01.615Z,103217.30
2019-03-27T04:41:29.473Z,103215.09
2019-03-27T04:43:57.294Z,103208.17
2019-03-27T04:46:25.158Z,103215.25
2019-03-27T04:48:52.989Z,103219.19
2019-03-27T04:51:20.848Z,103218.29
2019-03-27T04:53:48.668Z,103229.80
2019-03-27T04:56:16.504Z,103229.03
2019-03-27T04:58:44.352Z,103233.47
2019-03-27T05:01:12.133Z,103233.88
2019-03-27T05:03:39.907Z,103235.44
2019-03-27T05:06:07.741Z,103229.03
2019-03-27T05:08:35.539Z,103240.27
2019-03-27T05:11:03.424Z,103245.25
2019-03-27T05:13:31.255Z,103240.67
2019-03-27T05:15:59.277Z,103242.63
2019-03-27T05:18:27.090Z,103239.75
2019-03-27T05:20:54.886Z,103238.18
2019-03-27T05:23:22.658Z,103233.98
2019-03-27T05:25:50.475Z,103229.25
2019-03-27T05:28:18.660Z,103231.61
2019-03-27T05:30:46.446Z,103234.36
2019-03-27T05:33:14.272Z,103234.36
2019-03-27T05:35:42.085Z,103242.09
2019-03-27T05:38:09.930Z,103239.98
2019-03-27T05:40:37.708Z,103241.69
2019-03-27T05:43:05.535Z,103241.70
2019-03-27T05:45:33.358Z,103242.48
2019-03-27T05:48:01.136Z,103250.20
2019-03-27T05:50:29.049Z,103244.06
2019-03-27T05:52:56.903Z,103251.77
2019-03-27T05:55:26.610Z,103246.81
2019-03-27T05:57:54.533Z,103249.13
2019-03-27T06:00:22.599Z,103242.31
2019-03-27T06:02:50.447Z,103241.27
2019-03-27T06:05:18.320Z,103233.04
2019-03-27T06:07:46.149Z,103233.71
2019-03-27T06:10:16.358Z,103236.99
2019-03-27T06:12:43.760Z,103228.98
2019-03-27T06:15:11.723Z,103231.84
2019-03-27T06:17:39.526Z,103232.64
2019-03-27T06:20:07.316Z,103240.90
2019-03-27T06:22:35.277Z,103238.91
2019-03-27T06:25:03.456Z,103243.61
2019-03-27T06:27:31.224Z,103234.13
2019-03-27T06:29:59.039Z,103232.55
2019-03-27T06:32:26.965Z,103231.73
2019-03-27T06:34:54.750Z,103227.95
2019-03-27T06:37:22.552Z,103224.92
2019-03-27T06:39:50.515Z,103236.31
2019-03-27T06:42:18.325Z,103232.70
2019-03-27T06:44:46.122Z,103228.48
2019-03-27T06:47:13.943Z,103228.99
2019-03-27T06:49:42.215Z,103227.56
2019-03-27T06:52:10.033Z,103229.41
2019-03-27T06:54:37.934Z,103222.59
2019-03-27T06:57:05.792Z,103229.08
2019-03-27T06:59:33.657Z,103231.02
2019-03-27T07:02:01.466Z,103228.35
2019-03-27T07:04:29.276Z,103233.17
2019-03-27T07:06:57.114Z,103233.17
2019-03-27T07:09:24.930Z,103227.17
2019-03-27T07:11:52.742Z,103227.17
2019-03-27T07:14:20.627Z,103220.65
2019-03-27T07:16:48.417Z,103220.65
2019-03-27T07:19:16.986Z,103221.06
2019-03-27T07:21:44.840Z,103222.27
2019-03-27T07:24:12.708Z,103224.33
2019-03-27T07:26:40.629Z,103190.01
2019-03-27T07:29:08.453Z,103218.31
2019-03-27T07:31:36.287Z,103216.20
2019-03-27T07:34:04.108Z,103230.22
2019-03-27T07:36:31.962Z,103226.70
2019-03-27T07:39:10.402Z,103226.70
2019-03-27T07:41:29.557Z,103227.70
2019-03-27T07:43:57.408Z,103227.67
2019-03-27T07:46:25.289Z,103229.74
2019-03-27T07:48:54.483Z,103234.20
2019-03-27T07:51:22.570Z,103236.42
2019-03-27T07:53:50.424Z,103242.08
2019-03-27T07:56:18.346Z,103241.55
2019-03-27T07:58:46.393Z,103240.08
2019-03-27T08:01:14.225Z,103249.08
2019-03-27T08:03:42.088Z,103248.20
2019-03-27T08:06:09.923Z,103263.48
2019-03-27T08:08:37.717Z,103258.09
2019-03-27T08:11:05.532Z,103265.59
2019-03-27T08:13:33.495Z,103253.17
2019-03-27T08:16:01.352Z,103262.48
2019-03-27T08:18:29.188Z,103266.02
2019-03-27T08:20:57.042Z,103264.36
2019-03-27T08:23:24.849Z,103275.97
2019-03-27T08:25:52.673Z,103283.17
2019-03-27T08:28:20.502Z,103280.54
2019-03-27T08:30:48.339Z,103285.27
2019-03-27T08:33:16.133Z,103293.95
2019-03-27T08:35:43.975Z,103292.84
2019-03-27T08:38:14.913Z,103300.73
2019-03-27T08:40:41.620Z,103300.73
2019-03-27T08:43:20.760Z,103299.91
2019-03-27T08:45:39.192Z,103294.84
2019-03-27T08:48:07.065Z,103294.55
2019-03-27T08:50:34.864Z,103290.50
2019-03-27T08:53:02.682Z,103286.61
2019-03-27T08:55:30.508Z,103289.56
2019-03-27T08:57:58.352Z,103291.11
2019-03-27T09:00:46.022Z,103287.42
2019-03-27T09:03:13.852Z,103283.16
2019-03-27T09:05:41.643Z,103275.34
2019-03-27T09:08:09.469Z,103279.43
2019-03-27T09:10:37.312Z,103282.80
2019-03-27T09:13:05.158Z,103283.63
2019-03-27T09:15:33.092Z,103274.42
2019-03-27T09:18:00.914Z,103283.89
2019-03-27T09:20:28.780Z,103285.89
2019-03-27T09:22:56.667Z,103288.88
2019-03-27T09:25:24.493Z,103290.48
2019-03-27T09:27:52.324Z,103284.27
2019-03-27T09:30:20.478Z,103295.20
2019-03-27T09:32:48.293Z,103297.55
2019-03-27T09:35:16.212Z,103289.58
2019-03-27T09:37:44.052Z,103281.42
2019-03-27T09:40:12.133Z,103283.20
2019-03-27T09:42:39.928Z,103278.16
2019-03-27T09:45:08.156Z,103275.25
2019-03-27T09:47:35.976Z,103282.89
2019-03-27T09:50:04.571Z,103281.86
2019-03-27T09:52:32.448Z,103275.34
2019-03-27T09:55:00.401Z,103283.28
2019-03-27T09:57:28.323Z,103272.46
2019-03-27T09:59:56.510Z,103282.86
2019-03-27T10:02:24.316Z,103286.56
2019-03-27T10:04:52.136Z,103283.94
2019-03-27T10:07:19.970Z,103291.28
2019-03-27T10:09:50.343Z,103288.61
2019-03-27T10:12:17.551Z,103296.09
2019-03-27T10:14:47.519Z,103290.66
2019-03-27T10:17:15.139Z,103296.83
2019-03-27T10:19:42.941Z,103297.23
2019-03-27T10:22:10.765Z,103295.78
2019-03-27T10:24:38.705Z,103300.03
2019-03-27T10:27:06.830Z,103298.63
2019-03-27T10:29:34.609Z,103304.76
2019-03-27T10:32:02.442Z,103300.44
2019-03-27T10:34:30.330Z,103308.17
2019-03-27T10:36:58.264Z,103313.43
2019-03-27T10:39:26.060Z,103310.85
2019-03-27T10:41:53.922Z,103314.47
2019-03-27T10:44:21.716Z,103311.47
2019-03-27T10:46:49.646Z,103311.44
2019-03-27T10:49:17.482Z,103311.27
2019-03-27T10:51:45.289Z,103313.78
2019-03-27T10:54:13.064Z,103310.27
2019-03-27T10:56:41.028Z,103319.80
2019-03-27T10:59:08.879Z,103320.59
2019-03-27T11:01:36.748Z,103315.20
2019-03-27T11:04:04.565Z,103312.39
2019-03-27T11:06:32.402Z,103311.62
2019-03-27T11:09:00.267Z,103315.13
2019-03-27T11:11:28.129Z,103320.95
2019-03-27T11:13:55.929Z,103314.64
2019-03-27T11:16:23.821Z,103319.58
2019-03-27T11:18:51.693Z,103316.38
2019-03-27T11:21:19.501Z,103318.27
2019-03-27T11:23:47.404Z,103320.78
2019-03-27T11:26:15.226Z,103314.78
2019-03-27T11:28:43.098Z,103320.14
2019-03-27T11:31:10.926Z,103316.15
2019-03-27T11:33:38.738Z,103318.77
2019-03-27T11:36:06.539Z,103318.97
2019-03-27T11:38:37.382Z,103327.19
2019-03-27T11:41:04.090Z,103320.24
2019-03-27T11:43:31.926Z,103325.98
2019-03-27T11:45:59.800Z,103327.78
2019-03-27T11:48:27.779Z,103329.98
2019-03-27T11:50:55.693Z,103324.28
2019-03-27T11:53:23.507Z,103332.63
2019-03-27T11:55:51.341Z,103329.39
2019-03-27T11:58:21.994Z,103332.50
2019-03-27T12:00:54.890Z,103331.44
2019-03-27T12:03:19.675Z,103325.95
2019-03-27T12:05:47.512Z,103325.01
2019-03-27T12:08:15.515Z,103327.92
2019-03-27T12:10:43.312Z,103336.31
2019-03-27T12:13:11.203Z,103332.42
2019-03-27T12:15:42.949Z,103338.10
2019-03-27T12:18:13.381Z,103342.28
2019-03-27T12:20:42.025Z,103340.36
2019-03-27T12:23:10.007Z,103339.06
2019-03-27T12:25:37.827Z,103338.98
2019-03-27T12:28:05.667Z,103341.47
2019-03-27T12:30:33.442Z,103337.45
2019-03-27T12:33:01.266Z,103342.16
2019-03-27T12:35:29.411Z,103333.41
2019-03-27T12:37:57.216Z,103330.22
2019-03-27T12:40:24.999Z,103335.80
2019-03-27T12:42:52.836Z,103331.00
2019-03-27T12:45:20.798Z,103329.92
2019-03-27T12:47:48.597Z,103337.53
2019-03-27T12:50:16.625Z,103330.27
2019-03-27T12:52:44.472Z,103325.50
2019-03-27T12:55:12.359Z,103318.69
2019-03-27T12:57:40.159Z,103321.95
2019-03-27T13:00:09.520Z,103326.62
2019-03-27T13:02:37.358Z,103320.91
2019-03-27T13:05:05.449Z,103331.19
2019-03-27T13:07:33.310Z,103327.84
2019-03-27T13:10:01.127Z,103329.66
2019-03-27T13:12:28.895Z,103328.11
2019-03-27T13:14:56.773Z,103333.84
2019-03-27T13:17:24.580Z,103332.38
2019-03-27T13:19:52.436Z,103326.75
2019-03-27T13:22:20.280Z,103333.39
2019-03-27T13:24:48.062Z,103338.34
2019-03-27T13:27:15.896Z,103334.37
2019-03-27T13:29:43.796Z,103342.41
2019-03-27T13:32:11.578Z,103342.06
2019-03-27T13:34:39.494Z,103338.61
2019-03-27T13:37:07.362Z,103347.14
2019-03-27T13:39:35.168Z,103351.39
2019-03-27T13:42:02.964Z,103345.22
2019-03-27T13:44:37.408Z,103342.70
2019-03-27T13:47:01.746Z,103342.41
2019-03-27T13:49:29.663Z,103351.14
2019-03-27T13:51:57.443Z,103351.91
2019-03-27T13:54:25.316Z,103351.25
2019-03-27T13:56:53.134Z,103351.48
2019-03-27T13:59:21.034Z,103353.23
2019-03-27T14:01:48.935Z,103346.52
2019-03-27T14:04:16.732Z,103346.92
2019-03-27T14:06:44.984Z,103349.68
2019-03-27T14:09:12.962Z,103338.59
2019-03-27T14:11:40.773Z,103335.08
2019-03-27T14:14:11.535Z,103328.67
2019-03-27T14:16:38.591Z,103333.37
2019-03-27T14:19:06.390Z,103327.13
2019-03-27T14:21:34.274Z,103333.16
2019-03-27T14:24:02.108Z,103329.19
2019-03-27T14:26:44.038Z,103328.17
2019-03-27T14:28:59.801Z,103331.80
2019-03-27T14:31:27.572Z,103330.34
2019-03-27T14:33:58.348Z,103333.54
2019-03-27T14:36:26.173Z,103332.29
2019-03-27T14:38:53.975Z,103332.77
2019-03-27T14:41:21.807Z,103332.43
2019-03-27T14:43:49.617Z,103330.27
2019-03-27T14:46:17.449Z,103316.17
2019-03-27T14:48:45.287Z,103319.36
2019-03-27T14:51:13.144Z,103316.47
2019-03-27T14:53:40.986Z,103322.13
2019-03-27T14:56:08.756Z,103319.19
2019-03-27T14:58:36.560Z,103324.66
2019-03-27T15:01:04.370Z,103332.16
2019-03-27T15:03:32.218Z,103335.81
2019-03-27T15:06:01.123Z,103335.04
2019-03-27T15:08:29.002Z,103338.33
2019-03-27T15:10:56.819Z,103337.25
2019-03-27T15:13:24.738Z,103341.56
2019-03-27T15:15:52.526Z,103336.21
2019-03-27T15:18:20.376Z,103337.30
2019-03-27T15:20:48.434Z,103342.84
2019-03-27T15:23:16.376Z,103341.63
2019-03-27T15:25:44.351Z,103342.42
2019-03-27T15:28:12.113Z,103348.43
2019-03-27T15:30:40.143Z,103337.55
2019-03-27T15:33:07.938Z,103344.21
2019-03-27T15:35:35.826Z,103342.09
2019-03-27T15:38:03.713Z,103337.84
2019-03-27T15:40:42.182Z,103342.09
2019-03-27T15:43:10.022Z,103345.95
2019-03-27T15:45:37.863Z,103342.66
2019-03-27T15:48:05.944Z,103340.42
2019-03-27T15:50:33.807Z,103350.58
2019-03-27T15:53:01.640Z,103335.95
2019-03-27T15:55:29.483Z,103342.48
2019-03-27T15:57:57.370Z,103345.30
2019-03-27T16:00:25.450Z,103339.84
2019-03-27T16:02:53.278Z,103340.06
2019-03-27T16:05:23.730Z,103345.08
2019-03-27T16:07:51.555Z,103349.83
2019-03-27T16:10:19.390Z,103354.59
2019-03-27T16:12:47.177Z,103350.73
2019-03-27T16:15:15.090Z,103353.98
2019-03-27T16:17:42.932Z,103360.01
2019-03-27T16:20:10.921Z,103366.80
2019-03-27T16:22:50.359Z,103364.96
2019-03-27T16:25:08.751Z,103370.55
2019-03-27T16:27:36.631Z,103365.78
2019-03-27T16:30:05.014Z,103368.53
2019-03-27T16:32:32.790Z,103374.52
2019-03-27T16:35:00.647Z,103383.25
2019-03-27T16:37:28.422Z,103381.83
2019-03-27T16:39:56.261Z,103374.92
2019-03-27T16:42:24.089Z,103373.91
2019-03-27T16:44:51.891Z,103372.09
2019-03-27T16:47:19.693Z,103371.47
2019-03-27T16:49:47.522Z,103367.11
2019-03-27T16:52:15.346Z,103369.97
2019-03-27T16:54:43.319Z,103365.28
2019-03-27T16:57:11.105Z,103367.02
2019-03-27T16:59:38.928Z,103358.37
2019-03-27T17:02:06.788Z,103364.35
2019-03-27T17:04:34.560Z,103361.61
2019-03-27T17:07:02.721Z,103363.95
2019-03-27T17:09:30.523Z,103356.53
2019-03-27T17:11:58.396Z,103359.88
2019-03-27T17:14:26.183Z,103362.93
2019-03-27T17:16:54.064Z,103362.54
2019-03-27T17:19:21.967Z,103358.28
2019-03-27T17:21:49.753Z,103365.58
2019-03-27T17:24:17.639Z,103362.52
2019-03-27T17:26:45.515Z,103356.75
2019-03-27T17:29:13.400Z,103360.59
2019-03-27T17:31:41.267Z,103361.72
2019-03-27T17:34:09.150Z,103360.59
2019-03-27T17:36:37.030Z,103357.45
2019-03-27T17:39:07.153Z,103356.94
2019-03-27T17:41:34.949Z,103358.45
2019-03-27T17:44:02.772Z,103364.75
2019-03-27T17:46:33.031Z,103363.62
2019-03-27T17:49:00.799Z,103367.77
2019-03-27T17:51:28.638Z,103368.89
2019-03-27T17:53:56.428Z,103366.26
2019-03-27T17:56:24.474Z,103368.89
2019-03-27T17:58:52.338Z,103370.50
2019-03-27T18:01:20.184Z,103371.73
2019-03-27T18:03:48.058Z,103376.51
2019-03-27T18:06:15.930Z,103371.11
2019-03-27T18:08:43.845Z,103373.49
2019-03-27T18:11:11.620Z,103373.64
2019-03-27T18:13:39.508Z,103373.75
2019-03-27T18:16:07.317Z,103379.23
2019-03-27T18:18:35.157Z,103378.70
2019-03-27T18:21:02.983Z,103379.19
2019-03-27T18:23:46.169Z,103386.48
2019-03-27T18:26:18.361Z,103388.83
2019-03-27T18:28:46.138Z,103389.53
2019-03-27T18:31:13.959Z,103390.52
2019-03-27T18:33:41.763Z,103386.59
2019-03-27T18:36:09.690Z,103383.39
2019-03-27T18:38:37.512Z,103383.39
2019-03-27T18:41:05.334Z,103376.34
2019-03-27T18:43:33.182Z,103387.47
2019-03-27T18:46:00.967Z,103384.91
2019-03-27T18:48:28.770Z,103388.30
2019-03-27T18:50:56.557Z,103396.77
2019-03-27T18:53:24.352Z,103385.24
2019-03-27T18:55:52.168Z,103388.38
2019-03-27T18:58:20.081Z,103390.92
2019-03-27T19:00:47.918Z,103400.23
2019-03-27T19:03:15.700Z,103399.34
2019-03-27T19:05:43.545Z,103399.23
2019-03-27T19:08:11.332Z,103400.05
2019-03-27T19:10:39.196Z,103402.77
2019-03-27T19:13:07.022Z,103402.77
2019-03-27T19:15:34.814Z,103403.47
2019-03-27T19:18:02.662Z,103410.89
2019-03-27T19:20:30.484Z,103425.66
2019-03-27T19:22:58.257Z,103418.64
2019-03-27T19:25:26.147Z,103412.67
2019-03-27T19:27:53.959Z,103412.67
2019-03-27T19:30:21.939Z,103418.25
2019-03-27T19:32:49.910Z,103425.64
2019-03-27T19:35:17.675Z,103422.33
2019-03-27T19:37:45.546Z,103427.66
2019-03-27T19:40:13.604Z,103418.31
2019-03-27T19:42:41.635Z,103418.31
2019-03-27T19:45:09.668Z,103423.64
2019-03-27T19:47:37.601Z,103428.03
2019-03-27T19:50:05.881Z,103428.16
2019-03-27T19:52:33.719Z,103429.04
2019-03-27T19:55:01.503Z,103428.00
2019-03-27T19:57:29.357Z,103431.39
2019-03-27T19:59:57.220Z,103431.39
2019-03-27T20:02:25.094Z,103428.28
2019-03-27T20:04:53.056Z,103435.12
2019-03-27T20:07:20.839Z,103431.80
2019-03-27T20:09:48.707Z,103436.89
2019-03-27T20:12:16.496Z,103436.89
2019-03-27T20:14:44.409Z,103438.31
2019-03-27T20:17:12.235Z,103438.31
2019-03-27T20:19:40.143Z,103439.11
2019-03-27T20:22:07.879Z,103442.70
2019-03-27T20:24:41.278Z,103437.44
2019-03-27T20:27:05.483Z,103442.38
2019-03-27T20:29:33.294Z,103445.69
2019-03-27T20:32:01.145Z,103447.19
2019-03-27T20:34:28.945Z,103446.02
2019-03-27T20:36:56.749Z,103446.02
2019-03-27T20:39:24.556Z,103449.14
2019-03-27T20:41:52.367Z,103444.66
2019-03-27T20:44:20.241Z,103450.13
2019-03-27T20:46:48.016Z,103456.33
2019-03-27T20:49:15.815Z,103454.44
2019-03-27T20:51:43.648Z,103452.34
2019-03-27T20:54:11.462Z,103452.34
2019-03-27T20:56:39.924Z,103445.13
2019-03-27T20:59:07.711Z,103445.59
2019-03-27T21:01:35.675Z,103446.84
2019-03-27T21:04:03.439Z,103443.11
2019-03-27T21:06:31.269Z,103438.48
2019-03-27T21:08:59.083Z,103442.39
2019-03-27T21:11:26.902Z,103444.28
2019-03-27T21:13:54.729Z,103429.81
2019-03-27T21:16:22.528Z,103429.81
2019-03-27T21:18:50.335Z,103431.36
2019-03-27T21:21:18.206Z,103451.59
2019-03-27T21:23:46.003Z,103451.59
2019-03-27T21:26:13.865Z,103462.12
2019-03-27T21:28:41.662Z,103443.77
2019-03-27T21:31:09.475Z,103458.20
2019-03-27T21:33:37.311Z,103456.09
2019-03-27T21:36:05.122Z,103446.34
2019-03-27T21:38:32.973Z,103448.16
2019-03-27T21:41:00.895Z,103455.19
2019-03-27T21:43:28.721Z,103451.88
2019-03-27T21:45:56.588Z,103451.75
2019-03-27T21:48:24.402Z,103440.13
2019-03-27T21:50:52.183Z,103446.97
2019-03-27T21:53:20.021Z,103446.97
2019-03-27T21:55:47.846Z,103449.64
2019-03-27T21:58:15.671Z,103449.64
2019-03-27T22:00:43.544Z,103455.72
2019-03-27T22:03:11.404Z,103443.87
2019-03-27T22:05:39.481Z,103451.82
2019-03-27T22:08:07.513Z,103459.08
2019-03-27T22:10:35.465Z,103452.50
2019-03-27T22:13:03.368Z,103452.50
2019-03-27T22:15:31.205Z,103445.17
2019-03-27T22:17:59.024Z,103448.70
2019-03-27T22:20:26.849Z,103454.16
2019-03-27T22:22:54.719Z,103451.44
2019-03-27T22:25:34.936Z,103460.29
2019-03-27T22:27:52.275Z,103471.08
2019-03-27T22:30:20.132Z,103471.08
2019-03-27T22:32:48.037Z,103462.83
2019-03-27T22:35:15.884Z,103468.14
2019-03-27T22:37:43.736Z,103471.94
2019-03-27T22:40:11.594Z,103473.20
2019-03-27T22:42:41.434Z,103473.97
2019-03-27T22:45:10.157Z,103475.50
2019-03-27T22:47:37.963Z,103467.97
2019-03-27T22:50:07.999Z,103474.55
2019-03-27T22:52:35.838Z,103474.55
2019-03-27T22:55:03.835Z,103468.31
2019-03-27T22:57:31.632Z,103468.31
2019-03-27T22:59:59.463Z,103467.36
2019-03-27T23:02:27.332Z,103466.95
2019-03-27T23:04:55.160Z,103479.60
2019-03-27T23:07:22.970Z,103487.80
2019-03-27T23:09:50.860Z,103489.44
2019-03-27T23:12:18.671Z,103483.91
2019-03-27T23:14:46.533Z,103478.64
2019-03-27T23:17:14.317Z,103481.55
2019-03-27T23:19:42.112Z,103477.91
2019-03-27T23:22:09.930Z,103480.36
2019-03-27T23:24:37.776Z,103479.00
2019-03-27T23:27:05.633Z,103475.55
2019-03-27T23:29:33.502Z,103486.94
2019-03-27T23:32:01.305Z,103486.94
2019-03-27T23:34:29.106Z,103488.94
2019-03-27T23:36:56.992Z,103490.70
2019-03-27T23:39:24.892Z,103484.81
2019-03-27T23:41:52.809Z,103484.28
2019-03-27T23:44:20.672Z,103485.77
2019-03-27T23:46:48.528Z,103487.64
2019-03-27T23:49:16.365Z,103486.45
2019-03-27T23:51:44.235Z,103487.72
2019-03-27T23:54:12.071Z,103489.72
2019-03-27T23:56:39.983Z,103482.56
2019-03-27T23:59:07.851Z,103478.61
